Terminal Aerodrome Forecast
Issued by NWS Twin Cities, MN

Home | Current Version | Previous Version | Text Only | Print | Product List | Glossary Off
Versions: 1 2 3 4 5 6 7 8 9 10 11 12 13 14 15 16 17 18 19 20

000
FTUS43 KMPX 051123
TAFSTC
TAF
KSTC 051123Z 0512/0612 19004KT 6SM BR SCT100
     FM051400 13010KT P6SM OVC100
     FM051900 16011G17KT P6SM OVC050
     FM060000 20012KT P6SM OVC035
     FM060300 24014G22KT P6SM OVC025=

USA.gov is the U.S. government's official web portal to all federal, state and local government web resources and services.